createdAt,value
2023-01-31T00:00:05.190Z,3.70
2023-01-31T00:02:33.243Z,3.80
2023-01-31T00:05:01.409Z,3.80
2023-01-31T00:07:29.504Z,3.90
2023-01-31T00:09:57.704Z,3.80
2023-01-31T00:12:25.757Z,3.80
2023-01-31T00:14:55.230Z,3.60
2023-01-31T00:17:24.254Z,3.50
2023-01-31T00:19:52.233Z,3.40
2023-01-31T00:22:20.218Z,3.20
2023-01-31T00:24:48.236Z,3.00
2023-01-31T00:27:16.338Z,3.00
2023-01-31T00:29:44.331Z,3.00
2023-01-31T00:32:16.645Z,3.10
2023-01-31T00:34:44.763Z,3.00
2023-01-31T00:37:12.764Z,2.90
2023-01-31T00:39:40.781Z,2.80
2023-01-31T00:42:08.818Z,2.80
2023-01-31T00:44:37.161Z,2.80
2023-01-31T00:47:05.483Z,2.90
2023-01-31T00:49:35.483Z,2.90
2023-01-31T00:52:04.310Z,2.70
2023-01-31T00:54:32.325Z,2.70
2023-01-31T00:57:00.336Z,2.70
2023-01-31T00:59:28.917Z,2.70
2023-01-31T01:01:56.954Z,2.70
2023-01-31T01:04:25.008Z,2.70
2023-01-31T01:06:54.420Z,2.80
2023-01-31T01:09:23.409Z,2.90
2023-01-31T01:11:51.569Z,2.90
2023-01-31T01:14:19.669Z,3.20
2023-01-31T01:16:47.644Z,3.00
2023-01-31T01:19:18.592Z,3.00
2023-01-31T01:21:46.743Z,2.90
2023-01-31T01:24:18.619Z,2.80
2023-01-31T01:26:47.156Z,2.80
2023-01-31T01:29:15.287Z,2.90
2023-01-31T01:31:43.383Z,2.80
2023-01-31T01:34:14.431Z,2.80
2023-01-31T01:36:43.876Z,2.80
2023-01-31T01:39:14.879Z,2.80
2023-01-31T01:41:43.243Z,2.80
2023-01-31T01:44:57.241Z,2.70
2023-01-31T01:47:34.519Z,2.80
2023-01-31T01:50:08.280Z,2.90
2023-01-31T01:52:40.763Z,2.90
2023-01-31T01:55:17.041Z,2.70
2023-01-31T01:57:46.980Z,2.60
2023-01-31T02:00:18.907Z,2.70
2023-01-31T02:02:48.481Z,2.60
2023-01-31T02:05:21.112Z,2.50
2023-01-31T02:07:49.750Z,2.50
2023-01-31T02:10:24.444Z,2.40
2023-01-31T02:12:52.863Z,2.50
2023-01-31T02:15:21.502Z,2.70
2023-01-31T02:17:50.175Z,2.60
2023-01-31T02:20:37.912Z,2.30
2023-01-31T02:23:39.909Z,2.30
2023-01-31T02:26:33.895Z,2.40
2023-01-31T02:29:28.829Z,2.60
2023-01-31T02:32:43.392Z,2.50
2023-01-31T02:35:18.087Z,2.60
2023-01-31T02:37:54.675Z,2.70
2023-01-31T02:40:28.937Z,2.80
2023-01-31T02:43:05.709Z,2.80
2023-01-31T02:45:43.237Z,2.70
2023-01-31T02:48:21.942Z,2.70
2023-01-31T02:50:59.991Z,2.70
2023-01-31T02:53:32.088Z,2.70
2023-01-31T02:56:18.328Z,2.70
2023-01-31T02:58:53.624Z,2.70
2023-01-31T03:01:25.663Z,2.70
2023-01-31T03:03:59.698Z,2.70
2023-01-31T03:07:00.742Z,2.50
2023-01-31T03:09:37.386Z,2.50
2023-01-31T03:12:24.914Z,2.60
2023-01-31T03:15:02.778Z,2.60
2023-01-31T03:17:36.386Z,2.50
2023-01-31T03:20:12.177Z,2.50
2023-01-31T03:22:42.413Z,2.50
2023-01-31T03:25:14.304Z,2.70
2023-01-31T03:27:46.525Z,2.60
2023-01-31T03:30:19.680Z,2.60
2023-01-31T03:32:53.810Z,2.60
2023-01-31T03:35:28.194Z,2.70
2023-01-31T03:38:01.557Z,2.80
2023-01-31T03:40:35.110Z,2.70
2023-01-31T03:43:11.779Z,2.70
2023-01-31T03:45:46.693Z,2.70
2023-01-31T03:48:18.928Z,2.70
2023-01-31T03:50:52.905Z,2.60
2023-01-31T03:53:26.885Z,2.60
2023-01-31T03:55:58.247Z,2.50
2023-01-31T03:58:29.486Z,2.40
2023-01-31T04:01:00.330Z,2.40
2023-01-31T04:03:32.361Z,2.30
2023-01-31T04:06:01.851Z,2.30
2023-01-31T04:08:29.912Z,2.10
2023-01-31T04:10:59.799Z,2.00
2023-01-31T04:13:28.927Z,2.00
2023-01-31T04:15:57.008Z,1.90
2023-01-31T04:18:25.036Z,1.70
2023-01-31T04:20:53.128Z,1.90
2023-01-31T04:23:22.460Z,1.60
2023-01-31T04:25:50.523Z,1.50
2023-01-31T04:28:18.526Z,1.40
2023-01-31T04:30:46.479Z,1.30
2023-01-31T04:33:14.453Z,1.10
2023-01-31T04:35:42.429Z,1.10
2023-01-31T04:38:10.463Z,1.20
2023-01-31T04:40:40.002Z,1.20
2023-01-31T04:43:08.261Z,1.10
2023-01-31T04:45:36.601Z,1.00
2023-01-31T04:48:04.978Z,0.90
2023-01-31T04:50:33.047Z,0.90
2023-01-31T04:53:01.210Z,1.00
2023-01-31T04:55:29.237Z,1.20
2023-01-31T04:57:58.571Z,1.50
2023-01-31T05:00:26.715Z,1.90
2023-01-31T05:02:54.876Z,2.10
2023-01-31T05:05:23.051Z,2.10
2023-01-31T05:07:51.037Z,2.00
2023-01-31T05:10:19.239Z,2.00
2023-01-31T05:12:47.873Z,2.10
2023-01-31T05:15:17.343Z,2.10
2023-01-31T05:17:53.781Z,2.10
2023-01-31T05:20:22.132Z,2.10
2023-01-31T05:22:50.197Z,2.10
2023-01-31T05:25:18.571Z,2.30
2023-01-31T05:27:46.777Z,2.30
2023-01-31T05:30:15.127Z,2.10
2023-01-31T05:32:45.832Z,2.10
2023-01-31T05:35:14.144Z,2.10
2023-01-31T05:37:42.553Z,2.10
2023-01-31T05:40:12.124Z,1.90
2023-01-31T05:42:40.397Z,1.80
2023-01-31T05:45:10.777Z,1.80
2023-01-31T05:47:38.948Z,1.60
2023-01-31T05:50:09.657Z,1.50
2023-01-31T05:52:37.632Z,1.50
2023-01-31T05:55:06.420Z,1.60
2023-01-31T05:57:34.492Z,1.40
2023-01-31T06:00:02.521Z,1.40
2023-01-31T06:02:32.319Z,1.20
2023-01-31T06:05:00.546Z,1.20
2023-01-31T06:07:29.917Z,1.10
2023-01-31T06:09:57.971Z,1.10
2023-01-31T06:12:25.930Z,1.00
2023-01-31T06:14:54.005Z,0.90
2023-01-31T06:17:23.935Z,0.90
2023-01-31T06:19:52.098Z,0.80
2023-01-31T06:22:20.341Z,0.70
2023-01-31T06:24:49.712Z,0.70
2023-01-31T06:27:17.783Z,0.60
2023-01-31T06:29:45.831Z,0.50
2023-01-31T06:32:13.927Z,0.70
2023-01-31T06:34:42.101Z,0.80
2023-01-31T06:37:10.777Z,0.70
2023-01-31T06:39:38.897Z,0.70
2023-01-31T06:42:08.605Z,0.70
2023-01-31T06:44:37.850Z,0.80
2023-01-31T06:47:06.310Z,0.80
2023-01-31T06:49:34.305Z,0.90
2023-01-31T06:52:02.686Z,0.80
2023-01-31T06:54:30.720Z,0.80
2023-01-31T06:56:58.760Z,0.70
2023-01-31T06:59:28.116Z,0.60
2023-01-31T07:01:56.198Z,0.70
2023-01-31T07:04:24.587Z,0.60
2023-01-31T07:06:52.692Z,0.70
2023-01-31T07:09:20.732Z,0.80
2023-01-31T07:11:48.716Z,0.70
2023-01-31T07:14:17.293Z,0.90
2023-01-31T07:16:46.698Z,0.90
2023-01-31T07:19:14.769Z,1.10
2023-01-31T07:21:42.793Z,1.20
2023-01-31T07:24:11.253Z,1.20
2023-01-31T07:26:39.269Z,1.20
2023-01-31T07:29:07.314Z,1.20
2023-01-31T07:31:35.565Z,1.30
2023-01-31T07:34:05.120Z,1.20
2023-01-31T07:36:33.397Z,1.20
2023-01-31T07:39:01.929Z,1.30
2023-01-31T07:41:30.355Z,1.30
2023-01-31T07:43:59.719Z,1.50
2023-01-31T07:46:27.785Z,1.60
2023-01-31T07:48:55.812Z,1.60
2023-01-31T07:51:25.223Z,1.70
2023-01-31T07:53:53.509Z,1.70
2023-01-31T07:56:22.836Z,1.80
2023-01-31T07:58:52.064Z,2.00
2023-01-31T08:01:39.786Z,2.10
2023-01-31T08:04:20.448Z,2.40
2023-01-31T08:06:54.672Z,2.50
2023-01-31T08:09:22.758Z,2.60
2023-01-31T08:11:50.811Z,2.60
2023-01-31T08:14:23.615Z,2.70
2023-01-31T08:16:51.796Z,2.90
2023-01-31T08:19:19.902Z,3.00
2023-01-31T08:21:47.910Z,3.00
2023-01-31T08:24:17.353Z,3.10
2023-01-31T08:26:45.988Z,3.20
2023-01-31T08:29:14.316Z,3.50
2023-01-31T08:31:42.991Z,3.60
2023-01-31T08:34:11.339Z,3.60
2023-01-31T08:36:39.688Z,3.70
2023-01-31T08:39:07.867Z,3.80
2023-01-31T08:41:38.630Z,3.90
2023-01-31T08:44:07.723Z,4.00
2023-01-31T08:46:37.458Z,4.10
2023-01-31T08:49:07.346Z,4.20
2023-01-31T08:51:35.551Z,4.30
2023-01-31T08:54:03.599Z,4.30
2023-01-31T08:56:32.398Z,4.40
2023-01-31T08:59:01.981Z,4.40
2023-01-31T09:01:30.469Z,4.40
2023-01-31T09:03:58.537Z,4.50
2023-01-31T09:06:28.897Z,4.70
2023-01-31T09:08:58.660Z,4.90
2023-01-31T09:11:30.156Z,5.00
2023-01-31T09:13:58.531Z,5.20
2023-01-31T09:16:28.052Z,5.10
2023-01-31T09:18:57.438Z,5.10
2023-01-31T09:21:26.276Z,4.80
2023-01-31T09:23:57.466Z,4.80
2023-01-31T09:26:26.296Z,5.10
2023-01-31T09:28:54.582Z,5.20
2023-01-31T09:31:22.983Z,5.50
2023-01-31T09:33:52.544Z,5.60
2023-01-31T09:36:22.039Z,5.70
2023-01-31T09:38:54.411Z,5.60
2023-01-31T09:41:29.898Z,5.90
2023-01-31T09:44:01.160Z,6.00
2023-01-31T09:46:33.623Z,5.80
2023-01-31T09:49:06.577Z,6.00
2023-01-31T09:51:35.572Z,6.20
2023-01-31T09:54:06.097Z,6.30
2023-01-31T09:56:40.596Z,6.20
2023-01-31T09:59:17.619Z,6.00
2023-01-31T10:01:51.712Z,6.10
2023-01-31T10:04:40.794Z,6.00
2023-01-31T10:07:17.925Z,6.00
2023-01-31T10:09:51.630Z,6.10
2023-01-31T10:12:23.948Z,6.00
2023-01-31T10:14:54.649Z,5.90
2023-01-31T10:17:27.188Z,5.90
2023-01-31T10:20:00.320Z,5.80
2023-01-31T10:22:35.643Z,6.10
2023-01-31T10:25:17.396Z,6.20
2023-01-31T10:27:50.845Z,6.40
2023-01-31T10:30:22.436Z,6.40
2023-01-31T10:32:56.787Z,5.90
2023-01-31T10:35:31.775Z,5.80
2023-01-31T10:38:05.414Z,6.00
2023-01-31T10:40:37.729Z,6.20
2023-01-31T10:43:15.185Z,6.20
2023-01-31T10:45:43.304Z,6.40
2023-01-31T10:48:17.398Z,6.10
2023-01-31T10:50:57.870Z,6.30
2023-01-31T10:53:44.129Z,6.70
2023-01-31T10:56:17.710Z,6.70
2023-01-31T10:58:45.826Z,6.10
2023-01-31T11:01:15.243Z,6.20
2023-01-31T11:03:50.410Z,6.80
2023-01-31T11:06:21.086Z,6.90
2023-01-31T11:08:52.942Z,6.40
2023-01-31T11:11:23.326Z,6.10
2023-01-31T11:14:00.003Z,6.10
2023-01-31T11:16:31.930Z,6.40
2023-01-31T11:19:02.274Z,6.60
2023-01-31T11:21:33.736Z,6.80
2023-01-31T11:24:04.955Z,6.80
2023-01-31T11:26:35.530Z,6.50
2023-01-31T11:29:08.515Z,6.40
2023-01-31T11:31:42.491Z,6.40
2023-01-31T11:34:21.616Z,6.30
2023-01-31T11:36:51.393Z,6.50
2023-01-31T11:39:31.745Z,6.50
2023-01-31T11:42:07.029Z,6.40
2023-01-31T11:44:35.221Z,6.80
2023-01-31T11:47:05.745Z,7.10
2023-01-31T11:49:36.458Z,7.30
2023-01-31T11:52:15.375Z,7.30
2023-01-31T11:54:50.471Z,7.20
2023-01-31T11:57:23.876Z,7.30
2023-01-31T11:59:55.950Z,7.30
2023-01-31T12:02:33.104Z,7.00
2023-01-31T12:05:02.332Z,7.00
2023-01-31T12:07:44.271Z,7.10
2023-01-31T12:10:29.618Z,7.20
2023-01-31T12:13:16.407Z,7.40
2023-01-31T12:15:55.454Z,7.50
2023-01-31T12:18:51.982Z,7.20
2023-01-31T12:21:36.639Z,7.40
2023-01-31T12:24:15.948Z,7.60
2023-01-31T12:26:50.224Z,7.60
2023-01-31T12:29:41.014Z,7.70
2023-01-31T12:32:25.689Z,7.30
2023-01-31T12:35:26.794Z,7.30
2023-01-31T12:38:05.991Z,7.30
2023-01-31T12:40:44.712Z,7.40
2023-01-31T12:43:26.176Z,6.90
2023-01-31T12:46:07.008Z,7.40
2023-01-31T12:49:07.827Z,7.80
2023-01-31T12:51:44.197Z,7.00
2023-01-31T12:54:34.062Z,6.60
2023-01-31T12:57:14.363Z,6.60
2023-01-31T12:59:51.692Z,6.50
2023-01-31T13:02:33.690Z,6.60
2023-01-31T13:05:11.153Z,6.40
2023-01-31T13:07:43.749Z,6.30
2023-01-31T13:10:31.401Z,6.10
2023-01-31T13:13:02.911Z,6.00
2023-01-31T13:15:41.799Z,5.90
2023-01-31T13:18:14.145Z,5.90
2023-01-31T13:20:50.526Z,5.90
2023-01-31T13:23:24.279Z,6.10
2023-01-31T13:25:57.084Z,6.20
2023-01-31T13:28:30.770Z,6.30
2023-01-31T13:31:01.135Z,6.20
2023-01-31T13:33:37.323Z,6.10
2023-01-31T13:36:17.722Z,6.10
2023-01-31T13:38:46.787Z,6.10
2023-01-31T13:41:23.366Z,6.10
2023-01-31T13:43:52.738Z,6.00
2023-01-31T13:46:24.597Z,5.70
2023-01-31T13:48:57.079Z,5.70
2023-01-31T13:51:30.221Z,5.80
2023-01-31T13:54:03.021Z,5.90
2023-01-31T13:56:33.800Z,5.80
2023-01-31T13:59:03.938Z,5.90
2023-01-31T14:01:35.791Z,5.90
2023-01-31T14:04:29.262Z,5.80
2023-01-31T14:07:24.979Z,5.80
2023-01-31T14:10:29.485Z,5.60
2023-01-31T14:13:35.083Z,5.80
2023-01-31T14:16:05.857Z,5.90
2023-01-31T14:18:41.703Z,6.00
2023-01-31T14:21:57.384Z,6.00
2023-01-31T14:25:04.864Z,6.00
2023-01-31T14:27:39.188Z,6.00
2023-01-31T14:30:26.779Z,5.90
2023-01-31T14:33:17.907Z,5.90
2023-01-31T14:36:10.340Z,6.10
2023-01-31T14:38:53.333Z,6.20
2023-01-31T14:41:31.850Z,6.50
2023-01-31T14:44:11.751Z,6.60
2023-01-31T14:46:57.279Z,6.60
2023-01-31T14:49:44.211Z,6.50
2023-01-31T14:52:29.465Z,6.30
2023-01-31T14:55:21.647Z,5.80
2023-01-31T14:57:54.144Z,5.60
2023-01-31T15:00:27.681Z,5.70
2023-01-31T15:03:06.199Z,5.70
2023-01-31T15:05:47.215Z,5.70
2023-01-31T15:08:50.195Z,5.80
2023-01-31T15:11:42.413Z,5.80
2023-01-31T15:14:35.833Z,5.90
2023-01-31T15:17:20.100Z,5.70
2023-01-31T15:20:01.962Z,5.60
2023-01-31T15:22:32.016Z,5.60
2023-01-31T15:25:04.755Z,5.70
2023-01-31T15:27:38.590Z,5.70
2023-01-31T15:30:11.203Z,5.80
2023-01-31T15:32:45.804Z,5.70
2023-01-31T15:35:19.143Z,5.80
2023-01-31T15:37:56.101Z,5.90
2023-01-31T15:40:26.148Z,5.90
2023-01-31T15:42:54.136Z,5.90
2023-01-31T15:45:24.590Z,5.70
2023-01-31T15:47:57.746Z,5.70
2023-01-31T15:50:26.311Z,5.70
2023-01-31T15:52:57.744Z,5.70
2023-01-31T15:55:25.939Z,5.70
2023-01-31T15:58:04.391Z,5.70
2023-01-31T16:00:34.930Z,5.70
2023-01-31T16:03:04.418Z,5.60
2023-01-31T16:05:34.594Z,5.60
2023-01-31T16:08:06.193Z,5.60
2023-01-31T16:10:34.250Z,5.50
2023-01-31T16:13:02.613Z,5.40
2023-01-31T16:15:31.724Z,5.30
2023-01-31T16:18:03.497Z,5.30
2023-01-31T16:20:38.562Z,5.30
2023-01-31T16:23:29.899Z,5.30
2023-01-31T16:26:04.191Z,5.40
2023-01-31T16:28:38.727Z,5.40
2023-01-31T16:31:09.231Z,5.30
2023-01-31T16:33:38.332Z,5.30
2023-01-31T16:36:14.324Z,5.40
2023-01-31T16:38:58.939Z,5.40
2023-01-31T16:41:46.326Z,5.40
2023-01-31T16:44:18.298Z,5.40
2023-01-31T16:46:48.481Z,5.40
2023-01-31T16:49:22.184Z,5.40
2023-01-31T16:51:51.344Z,5.40
2023-01-31T16:54:23.644Z,5.40
2023-01-31T16:57:09.344Z,5.30
2023-01-31T16:59:45.348Z,5.20
2023-01-31T17:02:21.056Z,5.20
2023-01-31T17:04:50.718Z,5.20
2023-01-31T17:07:21.968Z,5.20
2023-01-31T17:09:56.580Z,5.20
2023-01-31T17:12:28.201Z,5.20
2023-01-31T17:15:00.840Z,5.30
2023-01-31T17:17:32.746Z,5.30
2023-01-31T17:20:01.111Z,5.30
2023-01-31T17:22:29.129Z,5.30
2023-01-31T17:24:58.516Z,5.20
2023-01-31T17:27:26.797Z,5.20
2023-01-31T17:29:54.796Z,5.30
2023-01-31T17:32:23.237Z,5.20
2023-01-31T17:34:51.217Z,5.30
2023-01-31T17:37:26.769Z,5.30
2023-01-31T17:40:00.800Z,5.30
2023-01-31T17:42:28.815Z,5.30
2023-01-31T17:44:56.869Z,5.30
2023-01-31T17:47:26.912Z,5.30
2023-01-31T17:49:55.487Z,5.30
2023-01-31T17:52:23.461Z,5.30
2023-01-31T17:54:51.469Z,5.30
2023-01-31T17:57:20.919Z,5.30
2023-01-31T17:59:48.931Z,5.20
2023-01-31T18:02:17.004Z,5.30
2023-01-31T18:04:45.017Z,5.20
2023-01-31T18:07:16.939Z,5.20
2023-01-31T18:09:45.638Z,5.20
2023-01-31T18:12:13.751Z,5.20
2023-01-31T18:14:43.238Z,5.10
2023-01-31T18:17:11.321Z,5.10
2023-01-31T18:19:39.537Z,5.10
2023-01-31T18:22:07.562Z,5.10
2023-01-31T18:24:35.589Z,5.00
2023-01-31T18:27:03.703Z,5.00
2023-01-31T18:29:31.720Z,5.00
2023-01-31T18:32:02.634Z,5.00
2023-01-31T18:34:33.046Z,5.00
2023-01-31T18:37:01.260Z,5.00
2023-01-31T18:39:29.383Z,5.00
2023-01-31T18:41:57.382Z,5.10
2023-01-31T18:44:25.812Z,5.10
2023-01-31T18:46:53.926Z,5.10
2023-01-31T18:49:23.355Z,5.10
2023-01-31T18:51:51.394Z,5.10
2023-01-31T18:54:19.733Z,5.10
2023-01-31T18:56:47.889Z,5.10
2023-01-31T18:59:15.888Z,5.10
2023-01-31T19:01:44.010Z,5.10
2023-01-31T19:04:12.148Z,5.20
2023-01-31T19:06:42.033Z,5.10
2023-01-31T19:09:11.226Z,5.20
2023-01-31T19:11:40.360Z,5.20
2023-01-31T19:14:09.264Z,5.20
2023-01-31T19:16:40.241Z,5.10
2023-01-31T19:19:09.272Z,5.10
2023-01-31T19:21:38.520Z,5.10
2023-01-31T19:24:11.170Z,5.10
2023-01-31T19:26:39.310Z,5.10
2023-01-31T19:29:09.816Z,5.10
2023-01-31T19:31:38.068Z,5.20
2023-01-31T19:34:07.530Z,5.20
2023-01-31T19:36:38.096Z,5.10
2023-01-31T19:39:09.602Z,5.10
2023-01-31T19:41:37.652Z,5.10
2023-01-31T19:44:06.128Z,5.10
2023-01-31T19:46:36.390Z,5.10
2023-01-31T19:49:04.912Z,5.10
2023-01-31T19:51:33.624Z,5.10
2023-01-31T19:54:03.028Z,5.10
2023-01-31T19:56:33.090Z,5.00
2023-01-31T19:59:01.580Z,5.00
2023-01-31T20:01:29.692Z,4.90
2023-01-31T20:03:57.765Z,4.90
2023-01-31T20:06:27.794Z,4.80
2023-01-31T20:08:58.504Z,4.70
2023-01-31T20:11:28.342Z,4.60
2023-01-31T20:13:58.349Z,4.50
2023-01-31T20:16:26.852Z,4.40
2023-01-31T20:18:56.170Z,4.40
2023-01-31T20:21:24.663Z,4.40
2023-01-31T20:23:52.697Z,4.50
2023-01-31T20:26:22.766Z,4.50
2023-01-31T20:28:51.126Z,4.60
2023-01-31T20:31:20.578Z,4.70
2023-01-31T20:33:48.842Z,4.80
2023-01-31T20:36:17.029Z,4.80
2023-01-31T20:38:45.086Z,4.80
2023-01-31T20:41:15.062Z,4.80
2023-01-31T20:43:43.884Z,4.90
2023-01-31T20:46:14.300Z,4.90
2023-01-31T20:48:43.801Z,4.90
2023-01-31T20:51:12.278Z,4.90
2023-01-31T20:53:40.465Z,5.00
2023-01-31T20:56:10.760Z,5.00
2023-01-31T20:58:40.828Z,5.10
2023-01-31T21:01:10.482Z,5.10
2023-01-31T21:03:39.018Z,5.10
2023-01-31T21:06:09.429Z,5.10
2023-01-31T21:08:38.124Z,5.10
2023-01-31T21:11:08.078Z,5.10
2023-01-31T21:13:36.774Z,5.10
2023-01-31T21:16:06.841Z,5.10
2023-01-31T21:18:37.290Z,5.00
2023-01-31T21:21:07.366Z,4.90
2023-01-31T21:23:37.765Z,4.80
2023-01-31T21:26:07.665Z,4.60
2023-01-31T21:28:36.045Z,4.50
2023-01-31T21:31:07.577Z,4.40
2023-01-31T21:33:35.825Z,4.30
2023-01-31T21:36:08.931Z,4.20
2023-01-31T21:38:38.903Z,4.20
2023-01-31T21:41:24.707Z,4.20
2023-01-31T21:43:53.023Z,4.20
2023-01-31T21:46:21.215Z,4.20
2023-01-31T21:48:49.388Z,4.30
2023-01-31T21:51:19.147Z,4.50
2023-01-31T21:53:48.635Z,4.40
2023-01-31T21:56:18.895Z,4.50
2023-01-31T21:58:47.698Z,4.50
2023-01-31T22:01:18.829Z,4.50
2023-01-31T22:03:49.455Z,4.50
2023-01-31T22:06:19.496Z,4.60
2023-01-31T22:08:51.635Z,4.60
2023-01-31T22:11:20.010Z,4.70
2023-01-31T22:13:55.812Z,4.80
2023-01-31T22:16:24.585Z,4.80
2023-01-31T22:18:53.203Z,4.80
2023-01-31T22:21:24.712Z,4.90
2023-01-31T22:23:55.697Z,4.90
2023-01-31T22:26:25.515Z,4.90
2023-01-31T22:28:55.890Z,4.90
2023-01-31T22:31:24.469Z,4.90
2023-01-31T22:33:53.332Z,4.90
2023-01-31T22:36:21.751Z,4.90
2023-01-31T22:38:49.768Z,4.90
2023-01-31T22:41:20.266Z,4.80
2023-01-31T22:43:50.294Z,4.80
2023-01-31T22:46:20.385Z,4.80
2023-01-31T22:48:49.867Z,4.70
2023-01-31T22:51:19.720Z,4.70
2023-01-31T22:53:48.404Z,4.60
2023-01-31T22:56:20.093Z,4.60
2023-01-31T22:58:48.805Z,4.60
2023-01-31T23:01:19.804Z,4.50
2023-01-31T23:03:48.331Z,4.50
2023-01-31T23:06:17.295Z,4.50
2023-01-31T23:08:45.967Z,4.50
2023-01-31T23:11:16.417Z,4.50
2023-01-31T23:13:46.255Z,4.40
2023-01-31T23:16:17.710Z,4.40
2023-01-31T23:18:46.063Z,4.40
2023-01-31T23:21:15.798Z,4.30
2023-01-31T23:23:44.671Z,4.30
2023-01-31T23:26:14.511Z,4.30
2023-01-31T23:28:42.680Z,4.30
2023-01-31T23:31:12.130Z,4.30
2023-01-31T23:33:40.224Z,4.30
2023-01-31T23:36:08.817Z,4.30
2023-01-31T23:38:36.835Z,4.30
2023-01-31T23:41:05.056Z,4.30
2023-01-31T23:43:33.469Z,4.40
2023-01-31T23:46:01.502Z,4.40
2023-01-31T23:48:30.898Z,4.30
2023-01-31T23:51:03.590Z,4.30
2023-01-31T23:53:31.655Z,4.30
2023-01-31T23:55:59.635Z,4.20
2023-01-31T23:58:27.690Z,4.20
